sensor_id;sensor_type;location;lat;lon;timestamp;P1;durP1;ratioP1;P2;durP2;ratioP2
81908;SDS011;71372;43.514;1.512;2024-03-23T00:53:34;8.02;;;5.97;;
81908;SDS011;71372;43.514;1.512;2024-03-23T00:56:00;8.90;;;5.50;;
81908;SDS011;71372;43.514;1.512;2024-03-23T00:58:26;8.73;;;5.63;;
81908;SDS011;71372;43.514;1.512;2024-03-23T01:00:52;14.43;;;6.32;;
81908;SDS011;71372;43.514;1.512;2024-03-23T01:03:18;10.27;;;6.05;;
81908;SDS011;71372;43.514;1.512;2024-03-23T01:05:44;11.00;;;6.18;;
81908;SDS011;71372;43.514;1.512;2024-03-23T01:08:09;10.15;;;6.43;;
81908;SDS011;71372;43.514;1.512;2024-03-23T01:10:35;11.73;;;6.38;;
81908;SDS011;71372;43.514;1.512;2024-03-23T01:13:01;9.77;;;6.30;;
81908;SDS011;71372;43.514;1.512;2024-03-23T01:15:27;9.57;;;6.65;;
81908;SDS011;71372;43.514;1.512;2024-03-23T01:17:53;11.50;;;6.32;;
81908;SDS011;71372;43.514;1.512;2024-03-23T01:20:19;12.57;;;6.07;;
81908;SDS011;71372;43.514;1.512;2024-03-23T01:22:45;9.75;;;6.10;;
81908;SDS011;71372;43.514;1.512;2024-03-23T01:25:11;12.48;;;7.15;;
81908;SDS011;71372;43.514;1.512;2024-03-23T01:27:37;10.60;;;5.72;;
81908;SDS011;71372;43.514;1.512;2024-03-23T01:30:03;11.02;;;6.00;;
81908;SDS011;71372;43.514;1.512;2024-03-23T01:32:29;10.60;;;6.75;;
81908;SDS011;71372;43.514;1.512;2024-03-23T01:34:55;8.57;;;6.38;;
81908;SDS011;71372;43.514;1.512;2024-03-23T01:37:21;10.70;;;6.38;;
81908;SDS011;71372;43.514;1.512;2024-03-23T01:39:47;10.63;;;5.82;;
81908;SDS011;71372;43.514;1.512;2024-03-23T01:42:13;12.27;;;6.95;;
81908;SDS011;71372;43.514;1.512;2024-03-23T01:44:38;9.40;;;5.18;;
81908;SDS011;71372;43.514;1.512;2024-03-23T01:47:06;8.15;;;5.82;;
81908;SDS011;71372;43.514;1.512;2024-03-23T01:49:32;9.00;;;6.15;;
81908;SDS011;71372;43.514;1.512;2024-03-23T01:51:59;10.60;;;6.05;;
81908;SDS011;71372;43.514;1.512;2024-03-23T01:54:25;10.45;;;6.50;;
81908;SDS011;71372;43.514;1.512;2024-03-23T01:56:51;13.07;;;7.38;;
81908;SDS011;71372;43.514;1.512;2024-03-23T01:59:17;14.70;;;6.95;;
81908;SDS011;71372;43.514;1.512;2024-03-23T02:01:44;10.80;;;5.85;;
81908;SDS011;71372;43.514;1.512;2024-03-23T02:04:10;10.82;;;6.68;;
81908;SDS011;71372;43.514;1.512;2024-03-23T02:06:36;10.70;;;6.47;;
81908;SDS011;71372;43.514;1.512;2024-03-23T02:09:02;12.70;;;6.45;;
81908;SDS011;71372;43.514;1.512;2024-03-23T02:11:29;10.07;;;5.63;;
81908;SDS011;71372;43.514;1.512;2024-03-23T02:13:55;9.48;;;5.20;;
81908;SDS011;71372;43.514;1.512;2024-03-23T02:16:21;11.73;;;5.78;;
81908;SDS011;71372;43.514;1.512;2024-03-23T02:18:47;8.05;;;5.10;;
81908;SDS011;71372;43.514;1.512;2024-03-23T02:21:12;9.25;;;5.15;;
81908;SDS011;71372;43.514;1.512;2024-03-23T02:23:38;8.93;;;4.47;;
81908;SDS011;71372;43.514;1.512;2024-03-23T02:26:04;8.02;;;4.57;;
81908;SDS011;71372;43.514;1.512;2024-03-23T02:28:30;9.50;;;4.95;;
81908;SDS011;71372;43.514;1.512;2024-03-23T02:30:56;8.15;;;4.43;;
81908;SDS011;71372;43.514;1.512;2024-03-23T02:33:22;8.75;;;4.65;;
81908;SDS011;71372;43.514;1.512;2024-03-23T02:35:49;11.40;;;4.40;;
81908;SDS011;71372;43.514;1.512;2024-03-23T02:38:15;5.90;;;4.10;;
81908;SDS011;71372;43.514;1.512;2024-03-23T02:40:41;5.45;;;3.38;;
81908;SDS011;71372;43.514;1.512;2024-03-23T02:43:07;5.55;;;3.13;;
81908;SDS011;71372;43.514;1.512;2024-03-23T02:45:33;6.85;;;3.60;;
81908;SDS011;71372;43.514;1.512;2024-03-23T02:47:58;4.85;;;3.13;;
81908;SDS011;71372;43.514;1.512;2024-03-23T02:50:24;4.10;;;3.05;;
81908;SDS011;71372;43.514;1.512;2024-03-23T02:52:50;4.45;;;2.95;;
81908;SDS011;71372;43.514;1.512;2024-03-23T02:55:16;4.47;;;2.80;;
81908;SDS011;71372;43.514;1.512;2024-03-23T02:57:42;3.90;;;2.70;;
81908;SDS011;71372;43.514;1.512;2024-03-23T03:00:08;5.05;;;2.83;;
81908;SDS011;71372;43.514;1.512;2024-03-23T03:02:36;7.85;;;2.58;;
81908;SDS011;71372;43.514;1.512;2024-03-23T03:05:03;4.00;;;2.58;;
81908;SDS011;71372;43.514;1.512;2024-03-23T03:07:31;5.28;;;2.28;;
81908;SDS011;71372;43.514;1.512;2024-03-23T03:09:57;3.22;;;2.20;;
81908;SDS011;71372;43.514;1.512;2024-03-23T03:12:23;3.50;;;2.30;;
81908;SDS011;71372;43.514;1.512;2024-03-23T03:14:49;4.45;;;2.50;;
81908;SDS011;71372;43.514;1.512;2024-03-23T03:17:15;4.10;;;2.40;;
81908;SDS011;71372;43.514;1.512;2024-03-23T03:19:41;3.47;;;1.98;;
81908;SDS011;71372;43.514;1.512;2024-03-23T03:22:07;5.80;;;2.80;;
81908;SDS011;71372;43.514;1.512;2024-03-23T03:24:33;6.70;;;2.72;;
81908;SDS011;71372;43.514;1.512;2024-03-23T03:26:59;4.20;;;2.20;;
81908;SDS011;71372;43.514;1.512;2024-03-23T03:29:24;7.18;;;3.10;;
81908;SDS011;71372;43.514;1.512;2024-03-23T03:31:51;6.03;;;2.70;;
81908;SDS011;71372;43.514;1.512;2024-03-23T03:34:17;6.32;;;2.30;;
81908;SDS011;71372;43.514;1.512;2024-03-23T03:36:42;4.72;;;2.22;;
81908;SDS011;71372;43.514;1.512;2024-03-23T03:39:08;7.18;;;3.05;;
81908;SDS011;71372;43.514;1.512;2024-03-23T03:41:35;5.18;;;2.50;;
81908;SDS011;71372;43.514;1.512;2024-03-23T03:44:01;4.05;;;2.58;;
81908;SDS011;71372;43.514;1.512;2024-03-23T03:46:30;3.95;;;1.98;;
81908;SDS011;71372;43.514;1.512;2024-03-23T03:48:56;9.65;;;2.70;;
81908;SDS011;71372;43.514;1.512;2024-03-23T03:51:22;5.82;;;2.70;;
81908;SDS011;71372;43.514;1.512;2024-03-23T03:53:48;7.10;;;2.58;;
81908;SDS011;71372;43.514;1.512;2024-03-23T03:56:14;2.10;;;1.38;;
81908;SDS011;71372;43.514;1.512;2024-03-23T03:58:40;6.30;;;2.50;;
81908;SDS011;71372;43.514;1.512;2024-03-23T04:01:06;8.27;;;2.47;;
81908;SDS011;71372;43.514;1.512;2024-03-23T04:03:32;6.95;;;2.05;;
81908;SDS011;71372;43.514;1.512;2024-03-23T04:05:58;4.40;;;2.38;;
81908;SDS011;71372;43.514;1.512;2024-03-23T04:08:23;5.38;;;2.85;;
81908;SDS011;71372;43.514;1.512;2024-03-23T04:10:49;7.18;;;3.30;;
81908;SDS011;71372;43.514;1.512;2024-03-23T04:13:15;5.95;;;2.40;;
81908;SDS011;71372;43.514;1.512;2024-03-23T04:15:42;8.43;;;2.50;;
81908;SDS011;71372;43.514;1.512;2024-03-23T04:18:08;4.70;;;2.53;;
81908;SDS011;71372;43.514;1.512;2024-03-23T04:20:34;7.45;;;2.70;;
81908;SDS011;71372;43.514;1.512;2024-03-23T04:23:00;10.45;;;2.70;;
81908;SDS011;71372;43.514;1.512;2024-03-23T04:25:26;3.88;;;2.28;;
81908;SDS011;71372;43.514;1.512;2024-03-23T04:27:52;4.38;;;2.35;;
81908;SDS011;71372;43.514;1.512;2024-03-23T04:30:18;5.07;;;2.20;;
81908;SDS011;71372;43.514;1.512;2024-03-23T04:32:44;5.05;;;2.30;;
81908;SDS011;71372;43.514;1.512;2024-03-23T04:35:10;5.50;;;2.10;;
81908;SDS011;71372;43.514;1.512;2024-03-23T04:37:37;7.47;;;2.00;;
81908;SDS011;71372;43.514;1.512;2024-03-23T04:40:06;4.47;;;2.25;;
81908;SDS011;71372;43.514;1.512;2024-03-23T04:42:33;4.25;;;1.90;;
81908;SDS011;71372;43.514;1.512;2024-03-23T04:44:59;6.47;;;2.33;;
81908;SDS011;71372;43.514;1.512;2024-03-23T04:47:25;9.43;;;2.40;;
81908;SDS011;71372;43.514;1.512;2024-03-23T04:49:51;4.43;;;2.30;;
81908;SDS011;71372;43.514;1.512;2024-03-23T04:52:17;5.13;;;2.25;;
81908;SDS011;71372;43.514;1.512;2024-03-23T04:54:44;8.38;;;2.13;;
81908;SDS011;71372;43.514;1.512;2024-03-23T04:57:11;6.95;;;2.45;;
81908;SDS011;71372;43.514;1.512;2024-03-23T04:59:37;6.22;;;2.45;;
81908;SDS011;71372;43.514;1.512;2024-03-23T05:02:03;3.60;;;2.10;;
81908;SDS011;71372;43.514;1.512;2024-03-23T05:04:29;6.07;;;1.95;;
81908;SDS011;71372;43.514;1.512;2024-03-23T05:06:55;3.17;;;1.92;;
81908;SDS011;71372;43.514;1.512;2024-03-23T05:09:20;5.90;;;2.03;;
81908;SDS011;71372;43.514;1.512;2024-03-23T05:11:46;8.40;;;2.40;;
81908;SDS011;71372;43.514;1.512;2024-03-23T05:14:13;7.40;;;1.90;;
81908;SDS011;71372;43.514;1.512;2024-03-23T05:16:39;8.18;;;2.10;;
81908;SDS011;71372;43.514;1.512;2024-03-23T05:19:05;5.50;;;2.00;;
81908;SDS011;71372;43.514;1.512;2024-03-23T05:21:31;4.15;;;2.10;;
81908;SDS011;71372;43.514;1.512;2024-03-23T05:23:57;3.70;;;1.83;;
81908;SDS011;71372;43.514;1.512;2024-03-23T05:26:23;7.22;;;2.00;;
81908;SDS011;71372;43.514;1.512;2024-03-23T05:28:49;3.35;;;1.65;;
81908;SDS011;71372;43.514;1.512;2024-03-23T05:31:33;7.07;;;1.92;;
81908;SDS011;71372;43.514;1.512;2024-03-23T05:33:59;7.05;;;1.77;;
81908;SDS011;71372;43.514;1.512;2024-03-23T05:36:25;5.28;;;1.60;;
81908;SDS011;71372;43.514;1.512;2024-03-23T05:38:51;5.93;;;1.63;;
81908;SDS011;71372;43.514;1.512;2024-03-23T05:41:16;3.47;;;1.55;;
81908;SDS011;71372;43.514;1.512;2024-03-23T05:43:42;7.40;;;1.88;;
81908;SDS011;71372;43.514;1.512;2024-03-23T05:46:08;5.15;;;1.85;;
81908;SDS011;71372;43.514;1.512;2024-03-23T05:48:35;3.53;;;1.50;;
81908;SDS011;71372;43.514;1.512;2024-03-23T05:51:01;4.05;;;1.85;;
81908;SDS011;71372;43.514;1.512;2024-03-23T05:53:31;6.18;;;2.25;;
81908;SDS011;71372;43.514;1.512;2024-03-23T05:56:03;7.40;;;2.00;;
81908;SDS011;71372;43.514;1.512;2024-03-23T05:58:29;3.22;;;1.65;;
81908;SDS011;71372;43.514;1.512;2024-03-23T06:00:59;5.50;;;1.88;;
81908;SDS011;71372;43.514;1.512;2024-03-23T06:03:27;4.50;;;1.80;;
81908;SDS011;71372;43.514;1.512;2024-03-23T06:05:54;5.53;;;1.75;;
81908;SDS011;71372;43.514;1.512;2024-03-23T06:08:20;3.50;;;2.05;;
81908;SDS011;71372;43.514;1.512;2024-03-23T06:10:47;3.25;;;1.90;;
81908;SDS011;71372;43.514;1.512;2024-03-23T06:13:13;4.82;;;1.90;;
81908;SDS011;71372;43.514;1.512;2024-03-23T06:15:39;5.30;;;1.60;;
81908;SDS011;71372;43.514;1.512;2024-03-23T06:18:05;5.20;;;1.65;;
81908;SDS011;71372;43.514;1.512;2024-03-23T06:20:33;4.25;;;2.10;;
81908;SDS011;71372;43.514;1.512;2024-03-23T06:23:02;6.57;;;2.00;;
81908;SDS011;71372;43.514;1.512;2024-03-23T06:25:29;4.03;;;1.60;;
81908;SDS011;71372;43.514;1.512;2024-03-23T06:27:55;7.13;;;2.17;;
81908;SDS011;71372;43.514;1.512;2024-03-23T06:30:21;3.38;;;1.40;;
81908;SDS011;71372;43.514;1.512;2024-03-23T06:32:47;3.17;;;1.80;;
81908;SDS011;71372;43.514;1.512;2024-03-23T06:35:13;5.90;;;1.83;;
81908;SDS011;71372;43.514;1.512;2024-03-23T06:37:39;2.00;;;1.25;;
81908;SDS011;71372;43.514;1.512;2024-03-23T06:40:07;4.60;;;1.50;;
81908;SDS011;71372;43.514;1.512;2024-03-23T06:42:35;4.20;;;1.67;;
81908;SDS011;71372;43.514;1.512;2024-03-23T06:45:02;3.25;;;1.60;;
81908;SDS011;71372;43.514;1.512;2024-03-23T06:47:30;5.45;;;1.60;;
81908;SDS011;71372;43.514;1.512;2024-03-23T06:49:56;4.53;;;1.75;;
81908;SDS011;71372;43.514;1.512;2024-03-23T06:52:22;4.20;;;1.58;;
81908;SDS011;71372;43.514;1.512;2024-03-23T06:54:48;6.68;;;1.70;;
81908;SDS011;71372;43.514;1.512;2024-03-23T06:57:14;5.90;;;1.80;;
81908;SDS011;71372;43.514;1.512;2024-03-23T06:59:40;6.45;;;1.70;;
81908;SDS011;71372;43.514;1.512;2024-03-23T07:02:06;5.00;;;1.67;;
81908;SDS011;71372;43.514;1.512;2024-03-23T07:04:34;4.93;;;1.70;;
81908;SDS011;71372;43.514;1.512;2024-03-23T07:07:00;3.40;;;1.75;;
81908;SDS011;71372;43.514;1.512;2024-03-23T07:09:29;5.90;;;2.25;;
81908;SDS011;71372;43.514;1.512;2024-03-23T07:11:58;2.20;;;1.50;;
81908;SDS011;71372;43.514;1.512;2024-03-23T07:14:24;6.15;;;1.63;;
81908;SDS011;71372;43.514;1.512;2024-03-23T07:16:51;3.05;;;1.70;;
81908;SDS011;71372;43.514;1.512;2024-03-23T07:19:17;3.45;;;2.10;;
81908;SDS011;71372;43.514;1.512;2024-03-23T07:21:46;3.15;;;1.30;;
81908;SDS011;71372;43.514;1.512;2024-03-23T07:24:13;7.78;;;1.58;;
81908;SDS011;71372;43.514;1.512;2024-03-23T07:26:39;5.03;;;1.60;;
81908;SDS011;71372;43.514;1.512;2024-03-23T07:29:06;3.95;;;1.75;;
81908;SDS011;71372;43.514;1.512;2024-03-23T07:31:32;4.50;;;1.67;;
81908;SDS011;71372;43.514;1.512;2024-03-23T07:33:58;3.17;;;1.58;;
81908;SDS011;71372;43.514;1.512;2024-03-23T07:36:24;3.67;;;1.50;;
81908;SDS011;71372;43.514;1.512;2024-03-23T07:38:50;4.55;;;1.70;;
81908;SDS011;71372;43.514;1.512;2024-03-23T07:41:18;4.32;;;1.67;;
81908;SDS011;71372;43.514;1.512;2024-03-23T07:43:45;1.95;;;1.10;;
81908;SDS011;71372;43.514;1.512;2024-03-23T07:46:12;6.07;;;1.50;;
81908;SDS011;71372;43.514;1.512;2024-03-23T07:48:38;4.63;;;1.75;;
81908;SDS011;71372;43.514;1.512;2024-03-23T07:51:09;3.75;;;0.93;;
81908;SDS011;71372;43.514;1.512;2024-03-23T07:53:36;1.35;;;0.88;;
81908;SDS011;71372;43.514;1.512;2024-03-23T07:56:06;1.67;;;0.60;;
81908;SDS011;71372;43.514;1.512;2024-03-23T07:58:33;0.95;;;0.60;;
81908;SDS011;71372;43.514;1.512;2024-03-23T08:01:08;3.05;;;1.00;;
81908;SDS011;71372;43.514;1.512;2024-03-23T08:03:36;1.02;;;0.70;;
81908;SDS011;71372;43.514;1.512;2024-03-23T08:06:16;1.85;;;0.55;;
81908;SDS011;71372;43.514;1.512;2024-03-23T08:08:44;0.93;;;0.28;;
81908;SDS011;71372;43.514;1.512;2024-03-23T08:13:37;1.70;;;0.40;;
81908;SDS011;71372;43.514;1.512;2024-03-23T08:16:05;1.10;;;0.60;;
81908;SDS011;71372;43.514;1.512;2024-03-23T08:18:31;1.45;;;0.45;;
81908;SDS011;71372;43.514;1.512;2024-03-23T08:21:01;2.17;;;0.63;;
81908;SDS011;71372;43.514;1.512;2024-03-23T08:23:29;2.10;;;0.60;;
81908;SDS011;71372;43.514;1.512;2024-03-23T08:26:02;3.13;;;0.57;;
81908;SDS011;71372;43.514;1.512;2024-03-23T08:28:29;2.65;;;0.70;;
81908;SDS011;71372;43.514;1.512;2024-03-23T08:30:55;2.65;;;0.60;;
81908;SDS011;71372;43.514;1.512;2024-03-23T08:33:22;2.35;;;0.70;;
81908;SDS011;71372;43.514;1.512;2024-03-23T08:35:56;5.65;;;0.68;;
81908;SDS011;71372;43.514;1.512;2024-03-23T08:38:29;3.05;;;0.70;;
81908;SDS011;71372;43.514;1.512;2024-03-23T08:40:58;4.13;;;0.60;;
81908;SDS011;71372;43.514;1.512;2024-03-23T08:43:25;3.85;;;0.82;;
81908;SDS011;71372;43.514;1.512;2024-03-23T08:45:52;2.05;;;0.75;;
81908;SDS011;71372;43.514;1.512;2024-03-23T08:48:21;1.25;;;0.70;;
81908;SDS011;71372;43.514;1.512;2024-03-23T08:50:47;2.85;;;0.60;;
81908;SDS011;71372;43.514;1.512;2024-03-23T08:53:23;4.60;;;0.90;;
81908;SDS011;71372;43.514;1.512;2024-03-23T08:55:55;3.25;;;0.65;;
81908;SDS011;71372;43.514;1.512;2024-03-23T08:58:25;3.35;;;1.05;;
81908;SDS011;71372;43.514;1.512;2024-03-23T09:00:52;2.38;;;0.85;;
81908;SDS011;71372;43.514;1.512;2024-03-23T09:03:18;3.10;;;0.80;;
81908;SDS011;71372;43.514;1.512;2024-03-23T09:05:44;6.07;;;1.00;;
81908;SDS011;71372;43.514;1.512;2024-03-23T09:08:10;5.55;;;1.05;;
81908;SDS011;71372;43.514;1.512;2024-03-23T09:10:39;5.05;;;0.90;;
81908;SDS011;71372;43.514;1.512;2024-03-23T09:13:05;2.47;;;0.90;;
81908;SDS011;71372;43.514;1.512;2024-03-23T09:15:35;4.25;;;0.82;;
81908;SDS011;71372;43.514;1.512;2024-03-23T09:18:03;4.05;;;0.82;;
81908;SDS011;71372;43.514;1.512;2024-03-23T09:20:32;5.40;;;1.00;;
81908;SDS011;71372;43.514;1.512;2024-03-23T09:22:59;6.25;;;1.17;;
81908;SDS011;71372;43.514;1.512;2024-03-23T09:25:25;2.65;;;0.70;;
81908;SDS011;71372;43.514;1.512;2024-03-23T09:27:51;7.40;;;1.30;;
81908;SDS011;71372;43.514;1.512;2024-03-23T09:30:17;8.55;;;1.42;;
81908;SDS011;71372;43.514;1.512;2024-03-23T09:32:45;14.65;;;1.90;;
81908;SDS011;71372;43.514;1.512;2024-03-23T09:35:11;6.60;;;1.00;;
81908;SDS011;71372;43.514;1.512;2024-03-23T09:37:38;6.38;;;0.80;;
81908;SDS011;71372;43.514;1.512;2024-03-23T09:40:10;1.73;;;0.50;;
81908;SDS011;71372;43.514;1.512;2024-03-23T09:42:37;8.32;;;1.30;;
81908;SDS011;71372;43.514;1.512;2024-03-23T09:45:06;2.95;;;0.77;;
81908;SDS011;71372;43.514;1.512;2024-03-23T09:47:42;5.13;;;1.02;;
81908;SDS011;71372;43.514;1.512;2024-03-23T09:50:08;4.97;;;0.90;;
81908;SDS011;71372;43.514;1.512;2024-03-23T09:52:35;4.30;;;0.75;;
81908;SDS011;71372;43.514;1.512;2024-03-23T09:55:01;5.60;;;0.85;;
81908;SDS011;71372;43.514;1.512;2024-03-23T09:57:27;6.15;;;1.08;;
81908;SDS011;71372;43.514;1.512;2024-03-23T09:59:53;3.22;;;0.65;;
81908;SDS011;71372;43.514;1.512;2024-03-23T10:02:20;4.15;;;1.10;;
81908;SDS011;71372;43.514;1.512;2024-03-23T10:04:47;6.15;;;1.10;;
81908;SDS011;71372;43.514;1.512;2024-03-23T10:07:13;4.45;;;0.90;;
81908;SDS011;71372;43.514;1.512;2024-03-23T10:09:40;6.95;;;0.95;;
81908;SDS011;71372;43.514;1.512;2024-03-23T10:12:10;6.03;;;0.93;;
81908;SDS011;71372;43.514;1.512;2024-03-23T10:14:37;4.88;;;0.80;;
81908;SDS011;71372;43.514;1.512;2024-03-23T10:17:11;3.88;;;0.60;;
81908;SDS011;71372;43.514;1.512;2024-03-23T10:19:46;6.97;;;1.27;;
81908;SDS011;71372;43.514;1.512;2024-03-23T10:22:14;3.72;;;0.80;;
81908;SDS011;71372;43.514;1.512;2024-03-23T10:24:52;5.65;;;1.25;;
81908;SDS011;71372;43.514;1.512;2024-03-23T10:27:19;4.25;;;0.93;;
81908;SDS011;71372;43.514;1.512;2024-03-23T10:29:46;7.43;;;1.30;;
81908;SDS011;71372;43.514;1.512;2024-03-23T10:32:13;4.45;;;0.88;;
81908;SDS011;71372;43.514;1.512;2024-03-23T10:34:40;5.03;;;0.90;;
81908;SDS011;71372;43.514;1.512;2024-03-23T10:37:07;6.05;;;1.20;;
81908;SDS011;71372;43.514;1.512;2024-03-23T10:39:34;2.42;;;0.90;;
81908;SDS011;71372;43.514;1.512;2024-03-23T10:42:02;2.33;;;0.82;;
81908;SDS011;71372;43.514;1.512;2024-03-23T10:44:30;6.00;;;0.88;;
81908;SDS011;71372;43.514;1.512;2024-03-23T10:46:59;3.53;;;0.70;;
81908;SDS011;71372;43.514;1.512;2024-03-23T10:49:30;1.90;;;0.55;;
81908;SDS011;71372;43.514;1.512;2024-03-23T10:52:00;5.47;;;1.05;;
81908;SDS011;71372;43.514;1.512;2024-03-23T10:54:27;4.10;;;0.80;;
81908;SDS011;71372;43.514;1.512;2024-03-23T10:56:56;3.30;;;1.00;;
81908;SDS011;71372;43.514;1.512;2024-03-23T11:01:55;5.97;;;0.90;;
81908;SDS011;71372;43.514;1.512;2024-03-23T11:04:31;4.97;;;0.68;;
81908;SDS011;71372;43.514;1.512;2024-03-23T11:07:01;3.70;;;0.75;;
81908;SDS011;71372;43.514;1.512;2024-03-23T11:09:43;9.48;;;1.00;;
81908;SDS011;71372;43.514;1.512;2024-03-23T11:14:43;3.40;;;0.70;;
81908;SDS011;71372;43.514;1.512;2024-03-23T11:17:09;5.75;;;0.80;;
81908;SDS011;71372;43.514;1.512;2024-03-23T11:19:36;5.28;;;0.88;;
81908;SDS011;71372;43.514;1.512;2024-03-23T11:22:03;5.97;;;0.70;;
81908;SDS011;71372;43.514;1.512;2024-03-23T11:24:30;7.55;;;1.23;;
81908;SDS011;71372;43.514;1.512;2024-03-23T11:26:57;4.30;;;0.85;;
81908;SDS011;71372;43.514;1.512;2024-03-23T11:29:27;4.85;;;1.00;;
81908;SDS011;71372;43.514;1.512;2024-03-23T11:36:47;5.88;;;0.90;;
81908;SDS011;71372;43.514;1.512;2024-03-23T11:39:14;4.57;;;0.60;;
81908;SDS011;71372;43.514;1.512;2024-03-23T11:41:50;3.85;;;0.80;;
81908;SDS011;71372;43.514;1.512;2024-03-23T11:44:25;4.40;;;0.65;;
81908;SDS011;71372;43.514;1.512;2024-03-23T11:46:52;2.97;;;0.60;;
81908;SDS011;71372;43.514;1.512;2024-03-23T11:51:48;2.05;;;0.95;;
81908;SDS011;71372;43.514;1.512;2024-03-23T11:54:15;1.80;;;0.35;;
81908;SDS011;71372;43.514;1.512;2024-03-23T11:56:57;2.92;;;0.50;;
81908;SDS011;71372;43.514;1.512;2024-03-23T11:59:57;2.00;;;0.70;;
81908;SDS011;71372;43.514;1.512;2024-03-23T12:02:16;4.47;;;0.50;;
81908;SDS011;71372;43.514;1.512;2024-03-23T12:04:44;2.35;;;0.50;;
81908;SDS011;71372;43.514;1.512;2024-03-23T12:07:10;2.38;;;0.60;;
81908;SDS011;71372;43.514;1.512;2024-03-23T12:09:46;1.45;;;0.50;;
81908;SDS011;71372;43.514;1.512;2024-03-23T12:12:13;4.43;;;0.60;;
81908;SDS011;71372;43.514;1.512;2024-03-23T12:14:41;2.67;;;0.68;;
81908;SDS011;71372;43.514;1.512;2024-03-23T12:17:27;1.70;;;0.60;;
81908;SDS011;71372;43.514;1.512;2024-03-23T12:19:53;2.38;;;0.60;;
81908;SDS011;71372;43.514;1.512;2024-03-23T12:22:22;1.20;;;0.32;;
81908;SDS011;71372;43.514;1.512;2024-03-23T12:24:48;4.75;;;0.60;;
81908;SDS011;71372;43.514;1.512;2024-03-23T12:27:14;2.67;;;0.40;;
81908;SDS011;71372;43.514;1.512;2024-03-23T12:29:41;1.33;;;0.45;;
81908;SDS011;71372;43.514;1.512;2024-03-23T12:32:11;2.42;;;0.50;;
81908;SDS011;71372;43.514;1.512;2024-03-23T12:34:39;2.13;;;0.52;;
81908;SDS011;71372;43.514;1.512;2024-03-23T12:37:05;2.90;;;0.50;;
81908;SDS011;71372;43.514;1.512;2024-03-23T12:39:34;1.13;;;0.32;;
81908;SDS011;71372;43.514;1.512;2024-03-23T12:42:01;3.25;;;0.50;;
81908;SDS011;71372;43.514;1.512;2024-03-23T12:44:30;4.40;;;0.50;;
81908;SDS011;71372;43.514;1.512;2024-03-23T12:46:56;2.35;;;0.40;;
81908;SDS011;71372;43.514;1.512;2024-03-23T12:49:23;1.65;;;0.60;;
81908;SDS011;71372;43.514;1.512;2024-03-23T12:51:55;1.83;;;0.43;;
81908;SDS011;71372;43.514;1.512;2024-03-23T12:54:22;1.98;;;0.50;;
81908;SDS011;71372;43.514;1.512;2024-03-23T12:56:48;2.17;;;0.65;;
81908;SDS011;71372;43.514;1.512;2024-03-23T12:59:15;2.67;;;0.50;;
81908;SDS011;71372;43.514;1.512;2024-03-23T13:01:42;2.58;;;0.63;;
81908;SDS011;71372;43.514;1.512;2024-03-23T13:04:09;2.80;;;0.45;;
81908;SDS011;71372;43.514;1.512;2024-03-23T13:06:35;1.67;;;0.43;;
81908;SDS011;71372;43.514;1.512;2024-03-23T13:09:01;2.15;;;0.40;;
81908;SDS011;71372;43.514;1.512;2024-03-23T13:11:29;3.38;;;0.55;;
81908;SDS011;71372;43.514;1.512;2024-03-23T13:13:55;2.25;;;0.30;;
81908;SDS011;71372;43.514;1.512;2024-03-23T13:16:21;2.10;;;0.30;;
81908;SDS011;71372;43.514;1.512;2024-03-23T13:18:47;1.90;;;0.40;;
81908;SDS011;71372;43.514;1.512;2024-03-23T13:21:13;2.97;;;0.60;;
81908;SDS011;71372;43.514;1.512;2024-03-23T13:23:39;3.47;;;1.02;;
81908;SDS011;71372;43.514;1.512;2024-03-23T13:26:07;2.58;;;0.40;;
81908;SDS011;71372;43.514;1.512;2024-03-23T13:28:33;3.03;;;0.47;;
81908;SDS011;71372;43.514;1.512;2024-03-23T13:31:01;2.63;;;0.50;;
81908;SDS011;71372;43.514;1.512;2024-03-23T13:33:32;1.45;;;0.40;;
81908;SDS011;71372;43.514;1.512;2024-03-23T13:35:58;1.48;;;0.52;;
81908;SDS011;71372;43.514;1.512;2024-03-23T13:38:24;2.55;;;0.60;;
81908;SDS011;71372;43.514;1.512;2024-03-23T13:40:53;4.10;;;0.60;;
81908;SDS011;71372;43.514;1.512;2024-03-23T13:43:24;1.88;;;0.35;;
81908;SDS011;71372;43.514;1.512;2024-03-23T13:45:54;2.05;;;0.38;;
81908;SDS011;71372;43.514;1.512;2024-03-23T13:48:24;2.22;;;0.65;;
81908;SDS011;71372;43.514;1.512;2024-03-23T13:51:01;2.22;;;0.38;;
81908;SDS011;71372;43.514;1.512;2024-03-23T13:53:28;3.08;;;0.47;;
81908;SDS011;71372;43.514;1.512;2024-03-23T13:55:54;2.58;;;0.55;;
81908;SDS011;71372;43.514;1.512;2024-03-23T13:58:21;3.80;;;0.60;;
81908;SDS011;71372;43.514;1.512;2024-03-23T14:00:47;3.42;;;0.50;;
81908;SDS011;71372;43.514;1.512;2024-03-23T14:03:13;4.20;;;0.73;;
81908;SDS011;71372;43.514;1.512;2024-03-23T14:05:40;2.90;;;0.60;;
81908;SDS011;71372;43.514;1.512;2024-03-23T14:08:07;3.67;;;0.60;;
81908;SDS011;71372;43.514;1.512;2024-03-23T14:10:33;4.13;;;0.60;;
81908;SDS011;71372;43.514;1.512;2024-03-23T14:12:59;3.03;;;0.60;;
81908;SDS011;71372;43.514;1.512;2024-03-23T14:15:29;3.42;;;0.75;;
81908;SDS011;71372;43.514;1.512;2024-03-23T14:17:56;2.53;;;0.50;;
81908;SDS011;71372;43.514;1.512;2024-03-23T14:20:22;4.50;;;0.95;;
81908;SDS011;71372;43.514;1.512;2024-03-23T14:22:52;4.90;;;0.73;;
81908;SDS011;71372;43.514;1.512;2024-03-23T14:25:18;2.95;;;0.80;;
81908;SDS011;71372;43.514;1.512;2024-03-23T14:27:44;2.63;;;0.60;;
81908;SDS011;71372;43.514;1.512;2024-03-23T14:30:11;3.70;;;0.90;;
81908;SDS011;71372;43.514;1.512;2024-03-23T14:32:38;3.67;;;0.70;;
81908;SDS011;71372;43.514;1.512;2024-03-23T14:35:04;2.95;;;0.55;;
81908;SDS011;71372;43.514;1.512;2024-03-23T14:37:30;1.92;;;0.55;;
81908;SDS011;71372;43.514;1.512;2024-03-23T14:39:57;4.20;;;0.90;;
81908;SDS011;71372;43.514;1.512;2024-03-23T14:42:23;4.00;;;0.73;;
81908;SDS011;71372;43.514;1.512;2024-03-23T14:44:52;4.25;;;0.98;;
81908;SDS011;71372;43.514;1.512;2024-03-23T14:47:19;3.90;;;0.70;;
81908;SDS011;71372;43.514;1.512;2024-03-23T14:49:45;2.72;;;0.50;;
81908;SDS011;71372;43.514;1.512;2024-03-23T14:52:16;3.05;;;0.50;;
81908;SDS011;71372;43.514;1.512;2024-03-23T14:54:43;1.88;;;0.52;;
81908;SDS011;71372;43.514;1.512;2024-03-23T14:57:09;4.60;;;0.70;;
81908;SDS011;71372;43.514;1.512;2024-03-23T14:59:35;3.80;;;0.68;;
81908;SDS011;71372;43.514;1.512;2024-03-23T15:02:04;3.03;;;0.85;;
81908;SDS011;71372;43.514;1.512;2024-03-23T15:04:30;4.10;;;0.90;;
81908;SDS011;71372;43.514;1.512;2024-03-23T15:06:56;4.20;;;0.70;;
81908;SDS011;71372;43.514;1.512;2024-03-23T15:09:22;3.35;;;0.40;;
81908;SDS011;71372;43.514;1.512;2024-03-23T15:11:48;2.55;;;0.70;;
81908;SDS011;71372;43.514;1.512;2024-03-23T15:14:14;3.08;;;0.50;;
81908;SDS011;71372;43.514;1.512;2024-03-23T15:16:40;3.92;;;0.68;;
81908;SDS011;71372;43.514;1.512;2024-03-23T15:19:08;6.45;;;1.50;;
81908;SDS011;71372;43.514;1.512;2024-03-23T15:21:34;3.00;;;0.50;;
81908;SDS011;71372;43.514;1.512;2024-03-23T15:24:00;1.98;;;0.50;;
81908;SDS011;71372;43.514;1.512;2024-03-23T15:26:26;2.50;;;0.70;;
81908;SDS011;71372;43.514;1.512;2024-03-23T15:28:52;7.90;;;0.60;;
81908;SDS011;71372;43.514;1.512;2024-03-23T15:31:20;2.85;;;0.77;;
81908;SDS011;71372;43.514;1.512;2024-03-23T15:33:46;4.20;;;0.60;;
81908;SDS011;71372;43.514;1.512;2024-03-23T15:36:14;4.72;;;0.75;;
81908;SDS011;71372;43.514;1.512;2024-03-23T15:38:40;3.85;;;0.63;;
81908;SDS011;71372;43.514;1.512;2024-03-23T15:41:05;3.05;;;0.60;;
81908;SDS011;71372;43.514;1.512;2024-03-23T15:43:31;4.93;;;0.60;;
81908;SDS011;71372;43.514;1.512;2024-03-23T15:45:58;3.67;;;1.15;;
81908;SDS011;71372;43.514;1.512;2024-03-23T15:48:28;4.00;;;0.60;;
81908;SDS011;71372;43.514;1.512;2024-03-23T15:50:55;4.35;;;0.63;;
81908;SDS011;71372;43.514;1.512;2024-03-23T15:53:25;2.65;;;0.52;;